This is the latest recevied weather packets stored in our database for station/object 9W2GDL-10. If no packets are shown the sender has not sent any weather packets the latest 10 day(s).
| Time | Temp. | Humidity | Pressure | Rain* | Wind** | Luminosity | Snow |
|---|---|---|---|---|---|---|---|
| 1788143687 | 36.67° C | 56% | 1012.7 hPa | - | - | - | - |
| 1788143086 | 36.11° C | 58% | 1012.8 hPa | - | - | - | - |
| 1788142485 | 36.11° C | 59% | 1012.8 hPa | - | - | - | - |
| 1788141885 | 35° C | 60% | 1012.7 hPa | - | - | - | - |
| 1788141284 | 34.44° C | 62% | 1012.8 hPa | - | - | - | - |
| 1788140683 | 33.33° C | 65% | 1012.9 hPa | - | - | - | - |
| 1788140082 | 33.33° C | 65% | 1012.8 hPa | - | - | - | - |
| 1788139482 | 32.78° C | 67% | 1012.7 hPa | - | - | - | - |
| 1788138881 | 32.78° C | 67% | 1012.5 hPa | - | - | - | - |
| 1788138280 | 31.67° C | 69% | 1012.5 hPa | - | - | - | - |
| 1788137679 | 31.67° C | 69% | 1012.4 hPa | - | - | - | - |
| 1788137078 | 31.67° C | 70% | 1012.2 hPa | - | - | - | - |
| 1788136478 | 31.11° C | 71% | 1012.2 hPa | - | - | - | - |
| 1788135877 | 30.56° C | 70% | 1012 hPa | - | - | - | - |
| 1788135276 | 30.56° C | 70% | 1011.9 hPa | - | - | - | - |
| 1788134675 | 30° C | 72% | 1011.7 hPa | - | - | - | - |
| 1788134074 | 30° C | 73% | 1011.7 hPa | - | - | - | - |
| 1788133474 | 29.44° C | 74% | 1011.5 hPa | - | - | - | - |
| 1788132873 | 30° C | 71% | 1011.4 hPa | - | - | - | - |
| 1788132730 | 30° C | 72% | 1011.4 hPa | - | - | - | - |
| 1788130788 | 30.56° C | 69% | 1011.1 hPa | - | - | - | - |
| 1788129501 | 33.89° C | 59% | 1011 hPa | - | - | - | - |
| 1788119511 | 30° C | 73% | 1010.8 hPa | - | - | - | - |
| 1788118910 | 29.44° C | 74% | 1010.8 hPa | - | - | - | - |
| 1788118310 | 29.44° C | 74% | 1010.9 hPa | - | - | - | - |
* Rain since midnight (hover to see other rain measurements)
** Current wind speed in m/s (hover to see current wind gust speed)